Time;durP1;ratioP1;P1;durP2;ratioP2;P2;SDS_P1;SDS_P2;PMS_P1;PMS_P2;Temp;Humidity;BMP_temperature;BMP_pressure;BME280_temperature;BME280_humidity;BME280_pressure;Samples;Min_cycle;Max_cycle;Signal;HPM_P1;HPM_P2
2021/04/17 00:01:14;;;;;;;0.77;0.77;;;;;;;;;;5078242;28;20273;-60
2021/04/17 00:03:41;;;;;;;2.17;0.57;;;;;;;;;;5076247;28;20224;-58
2021/04/17 00:06:12;;;;;;;4.03;2.47;;;;;;;;;;5057200;28;20551;-59
2021/04/17 00:08:39;;;;;;;0.00;0.00;;;;;;;;;;5074813;28;21007;-59
2021/04/17 00:11:08;;;;;;;0.00;0.00;;;;;;;;;;5074760;28;20209;-60
2021/04/17 00:13:38;;;;;;;0.00;0.00;;;;;;;;;;5079757;28;20206;-60
2021/04/17 00:16:05;;;;;;;0.00;0.00;;;;;;;;;;5077350;28;20422;-59
2021/04/17 00:18:31;;;;;;;0.50;0.30;;;;;;;;;;5074184;28;20193;-60
2021/04/17 00:20:58;;;;;;;1.53;1.37;;;;;;;;;;5068144;28;20297;-60
2021/04/17 00:23:24;;;;;;;0.00;0.00;;;;;;;;;;5073439;28;20202;-61
2021/04/17 00:25:55;;;;;;;0.57;0.30;;;;;;;;;;5069285;28;20190;-61
2021/04/17 00:28:24;;;;;;;24.73;1.23;;;;;;;;;;5071256;28;20194;-60
2021/04/17 00:30:54;;;;;;;0.30;0.30;;;;;;;;;;5076358;28;20226;-60
2021/04/17 00:33:20;;;;;;;0.63;0.20;;;;;;;;;;5077846;28;20438;-60
2021/04/17 00:35:47;;;;;;;0.00;0.00;;;;;;;;;;5070988;28;20266;-61
2021/04/17 00:38:13;;;;;;;0.40;0.20;;;;;;;;;;5074822;28;20186;-61
2021/04/17 00:40:40;;;;;;;0.67;0.67;;;;;;;;;;5070215;28;20663;-61
2021/04/17 00:43:07;;;;;;;7.70;3.60;;;;;;;;;;5074683;28;20190;-60
2021/04/17 00:45:34;;;;;;;0.30;0.30;;;;;;;;;;5074347;28;20237;-60
2021/04/17 00:48:02;;;;;;;0.20;0.20;;;;;;;;;;5078920;28;20347;-60
2021/04/17 00:50:29;;;;;;;0.87;0.60;;;;;;;;;;5074590;28;20281;-60
2021/04/17 00:52:56;;;;;;;3.23;2.93;;;;;;;;;;5061078;28;20277;-59
2021/04/17 00:55:22;;;;;;;0.57;0.57;;;;;;;;;;5075156;28;20182;-60
2021/04/17 00:57:49;;;;;;;2.47;1.73;;;;;;;;;;5051949;28;20282;-60
2021/04/17 01:00:16;;;;;;;0.10;0.10;;;;;;;;;;5070135;28;20193;-60
2021/04/17 01:03:03;;;;;;;0.73;0.73;;;;;;;;;;5076038;28;20226;-60
2021/04/17 01:05:35;;;;;;;0.00;0.00;;;;;;;;;;5069531;28;20938;-60
2021/04/17 01:08:04;;;;;;;1.90;1.33;;;;;;;;;;5047144;28;20189;-60
2021/04/17 01:10:44;;;;;;;1.30;0.23;;;;;;;;;;5078771;28;20187;-60
2021/04/17 01:13:11;;;;;;;1.27;1.17;;;;;;;;;;5068801;28;20276;-60
2021/04/17 01:15:38;;;;;;;3.80;3.10;;;;;;;;;;5069319;28;20182;-59
2021/04/17 01:18:06;;;;;;;0.13;0.13;;;;;;;;;;5068372;28;20904;-60
2021/04/17 01:20:49;;;;;;;2.10;1.13;;;;;;;;;;5068984;28;20728;-60
2021/04/17 01:23:31;;;;;;;0.50;0.40;;;;;;;;;;5061693;28;20189;-60
2021/04/17 01:26:07;;;;;;;0.10;0.10;;;;;;;;;;5062230;28;20178;-60
2021/04/17 01:28:42;;;;;;;0.23;0.23;;;;;;;;;;5065168;28;20185;-60
2021/04/17 01:31:11;;;;;;;0.20;0.20;;;;;;;;;;5073626;28;20186;-60
2021/04/17 01:33:40;;;;;;;0.20;0.20;;;;;;;;;;5057965;28;20648;-60
2021/04/17 01:36:09;;;;;;;0.43;0.43;;;;;;;;;;5076131;28;20190;-60
2021/04/17 01:38:43;;;;;;;1.00;0.93;;;;;;;;;;5077991;28;20600;-60
2021/04/17 01:41:20;;;;;;;1.90;0.93;;;;;;;;;;5063264;28;20659;-60
2021/04/17 01:43:51;;;;;;;1.13;0.33;;;;;;;;;;5068696;28;20223;-60
2021/04/17 01:46:20;;;;;;;2.23;1.83;;;;;;;;;;5067781;28;20220;-60
2021/04/17 01:48:48;;;;;;;2.73;1.17;;;;;;;;;;5067109;28;20198;-60
2021/04/17 01:51:15;;;;;;;7.03;1.87;;;;;;;;;;5073264;28;20265;-60
2021/04/17 01:53:45;;;;;;;0.33;0.33;;;;;;;;;;5068542;28;20297;-60
2021/04/17 01:56:12;;;;;;;1.20;0.50;;;;;;;;;;5074263;28;20209;-60
2021/04/17 01:58:43;;;;;;;0.00;0.00;;;;;;;;;;5075248;28;20543;-60
2021/04/17 02:01:12;;;;;;;0.20;0.20;;;;;;;;;;5075629;28;20194;-60
2021/04/17 02:03:39;;;;;;;1.80;0.87;;;;;;;;;;5070138;28;20901;-60
2021/04/17 02:06:06;;;;;;;0.00;0.00;;;;;;;;;;5071662;28;20186;-60
2021/04/17 02:08:39;;;;;;;0.50;0.50;;;;;;;;;;5057719;28;20190;-60
2021/04/17 02:11:06;;;;;;;0.00;0.00;;;;;;;;;;5069786;28;20273;-60
2021/04/17 02:13:34;;;;;;;0.40;0.40;;;;;;;;;;5075936;28;20315;-60
2021/04/17 02:16:21;;;;;;;0.00;0.00;;;;;;;;;;5050282;28;20628;-60
2021/04/17 02:18:57;;;;;;;0.00;0.00;;;;;;;;;;5068350;28;20183;-60
2021/04/17 02:21:26;;;;;;;0.77;0.77;;;;;;;;;;5061197;28;20235;-60
2021/04/17 02:23:55;;;;;;;8.33;2.37;;;;;;;;;;5048158;28;20616;-60
2021/04/17 02:26:21;;;;;;;0.10;0.10;;;;;;;;;;5066839;28;20188;-60
2021/04/17 02:28:49;;;;;;;4.37;4.07;;;;;;;;;;5064136;28;20194;-60
2021/04/17 02:31:18;;;;;;;0.87;0.83;;;;;;;;;;5069221;28;20273;-60
2021/04/17 02:33:45;;;;;;;0.00;0.00;;;;;;;;;;5065411;28;20236;-60
2021/04/17 13:53:35;;;;;;;0.50;0.50;;;;;;;;;;5108657;27;20562;-60
2021/04/17 13:56:02;;;;;;;0.63;0.60;;;;;;;;;;5106789;28;20189;-61
2021/04/17 13:58:29;;;;;;;2.43;1.40;;;;;;;;;;5103417;28;20188;-61
2021/04/17 14:00:57;;;;;;;2.27;2.07;;;;;;;;;;5115709;28;20185;-60
2021/04/17 14:03:25;;;;;;;14.13;4.63;;;;;;;;;;5105695;28;20190;-55
2021/04/17 14:05:54;;;;;;;5.10;2.03;;;;;;;;;;5101991;28;20209;-51
2021/04/17 14:08:25;;;;;;;2.73;1.17;;;;;;;;;;5096251;28;20185;-53
2021/04/17 14:10:52;;;;;;;2.53;0.43;;;;;;;;;;5081522;28;20174;-51
2021/04/17 14:13:19;;;;;;;7.37;2.00;;;;;;;;;;5080059;28;20722;-53
2021/04/17 14:15:46;;;;;;;1.20;0.77;;;;;;;;;;5076319;28;20190;-54
2021/04/17 14:18:13;;;;;;;2.47;0.93;;;;;;;;;;5074122;28;20423;-54
2021/04/17 14:20:44;;;;;;;0.00;0.00;;;;;;;;;;5074968;28;20536;-52
2021/04/17 14:23:13;;;;;;;1.13;0.57;;;;;;;;;;5076739;28;20178;-54
2021/04/17 14:25:40;;;;;;;3.13;1.63;;;;;;;;;;5082449;28;20205;-54
2021/04/17 14:28:07;;;;;;;0.27;0.17;;;;;;;;;;5079681;28;20269;-62
2021/04/17 14:30:34;;;;;;;3.50;0.47;;;;;;;;;;5080177;28;20178;-62
2021/04/17 14:33:01;;;;;;;0.50;0.50;;;;;;;;;;5080277;28;20304;-62
2021/04/17 14:35:28;;;;;;;6.27;0.80;;;;;;;;;;5079191;28;20277;-62
2021/04/17 14:37:55;;;;;;;2.53;2.43;;;;;;;;;;5079617;28;20282;-63
2021/04/17 14:40:22;;;;;;;0.40;0.40;;;;;;;;;;5081642;28;20184;-62
2021/04/17 14:42:48;;;;;;;0.33;0.20;;;;;;;;;;5078022;28;20254;-63
2021/04/17 14:45:16;;;;;;;1.60;0.93;;;;;;;;;;5078287;28;20179;-63
2021/04/17 14:47:42;;;;;;;7.80;1.47;;;;;;;;;;5078803;28;20200;-62
2021/04/17 14:50:09;;;;;;;0.03;0.03;;;;;;;;;;5080386;28;20183;-62
2021/04/17 14:52:36;;;;;;;1.93;1.27;;;;;;;;;;5081290;28;20239;-65
2021/04/17 14:55:03;;;;;;;10.67;3.90;;;;;;;;;;5080939;28;20195;-62
2021/04/17 15:00:17;;;;;;;0.17;0.13;;;;;;;;;;5037112;22;20588;-57
2021/04/17 15:02:45;;;;;;;0.40;0.30;;;;;;;;;;5029290;28;20217;-58
2021/04/17 15:05:12;;;;;;;3.20;1.80;;;;;;;;;;5017223;28;20182;-58
2021/04/17 15:07:41;;;;;;;4.00;0.47;;;;;;;;;;5015443;28;20173;-59
2021/04/17 15:10:11;;;;;;;4.07;2.20;;;;;;;;;;5016214;28;20174;-58
2021/04/17 15:12:37;;;;;;;1.63;1.30;;;;;;;;;;5018221;28;20934;-59
2021/04/17 15:15:05;;;;;;;0.97;0.70;;;;;;;;;;5016983;28;20634;-58
2021/04/17 15:17:31;;;;;;;0.70;0.63;;;;;;;;;;5003102;28;20239;-59
2021/04/17 15:19:58;;;;;;;1.20;1.03;;;;;;;;;;5016920;28;20238;-58
2021/04/17 15:22:24;;;;;;;0.10;0.10;;;;;;;;;;5019407;28;20196;-59
2021/04/17 15:24:51;;;;;;;1.97;1.77;;;;;;;;;;5010118;28;20194;-58
2021/04/17 15:27:18;;;;;;;0.50;0.50;;;;;;;;;;5011046;28;20678;-58
2021/04/17 15:29:45;;;;;;;12.30;2.07;;;;;;;;;;5021662;28;20375;-58
2021/04/17 15:32:12;;;;;;;2.13;1.00;;;;;;;;;;5027105;28;20464;-58
2021/04/17 15:34:46;;;;;;;14.30;0.97;;;;;;;;;;5023351;28;20235;-59
2021/04/17 15:37:13;;;;;;;1.50;1.00;;;;;;;;;;5019814;28;20189;-58
2021/04/17 15:39:40;;;;;;;3.33;2.00;;;;;;;;;;5020139;28;20191;-58
2021/04/17 15:42:08;;;;;;;0.97;0.47;;;;;;;;;;5021430;28;20186;-58
2021/04/17 15:44:35;;;;;;;2.37;1.67;;;;;;;;;;5018428;28;20532;-58
2021/04/17 15:47:01;;;;;;;0.00;0.00;;;;;;;;;;5020668;28;20667;-58
2021/04/17 15:49:28;;;;;;;4.73;1.33;;;;;;;;;;5021416;28;20201;-58
2021/04/17 15:51:56;;;;;;;5.73;1.57;;;;;;;;;;5027712;28;20285;-58
2021/04/17 15:54:23;;;;;;;2.13;1.80;;;;;;;;;;5020987;28;20432;-58
2021/04/17 15:57:00;;;;;;;0.73;0.73;;;;;;;;;;5020191;28;20189;-58
2021/04/17 16:15:42;;;;;;;11.63;2.17;;;;;;;;;;5019763;28;20188;-59
2021/04/17 16:18:09;;;;;;;4.80;2.10;;;;;;;;;;5017931;28;20221;-60
2021/04/17 16:20:38;;;;;;;5.27;0.60;;;;;;;;;;5014874;28;20630;-60
2021/04/17 16:23:05;;;;;;;0.23;0.20;;;;;;;;;;5016128;28;20187;-59
2021/04/17 16:25:32;;;;;;;0.47;0.30;;;;;;;;;;5016240;28;20438;-60
2021/04/17 16:28:00;;;;;;;3.60;1.60;;;;;;;;;;5015021;28;20788;-60
2021/04/17 16:30:29;;;;;;;12.73;3.73;;;;;;;;;;5017812;28;20223;-59
2021/04/17 16:32:56;;;;;;;0.73;0.70;;;;;;;;;;5014135;28;21027;-60
2021/04/17 16:35:24;;;;;;;1.47;1.33;;;;;;;;;;5015323;28;20196;-60
2021/04/17 16:37:51;;;;;;;0.47;0.17;;;;;;;;;;5019123;28;20214;-60
2021/04/17 16:40:21;;;;;;;1.60;0.10;;;;;;;;;;5019197;28;20181;-60
2021/04/17 16:42:48;;;;;;;17.23;11.47;;;;;;;;;;5017221;28;20555;-61
2021/04/17 16:45:18;;;;;;;2.23;0.83;;;;;;;;;;5015994;28;20193;-60
2021/04/17 16:47:48;;;;;;;0.77;0.30;;;;;;;;;;5014551;28;20194;-60
2021/04/17 16:50:16;;;;;;;1.60;1.00;;;;;;;;;;5014230;28;20191;-60
2021/04/17 16:52:42;;;;;;;1.83;0.97;;;;;;;;;;5012430;28;20209;-60
2021/04/17 16:55:10;;;;;;;0.67;0.67;;;;;;;;;;5013194;28;20252;-60
2021/04/17 16:57:36;;;;;;;0.47;0.47;;;;;;;;;;5012067;28;20588;-60
2021/04/17 17:00:05;;;;;;;8.90;1.40;;;;;;;;;;5018331;28;20232;-60
2021/04/17 17:02:33;;;;;;;37.57;1.60;;;;;;;;;;5012670;28;20192;-60
2021/04/17 17:05:06;;;;;;;4.87;1.20;;;;;;;;;;5014062;28;20252;-59
2021/04/17 17:07:32;;;;;;;0.03;0.03;;;;;;;;;;5016528;28;20173;-60
2021/04/17 17:09:59;;;;;;;6.43;1.70;;;;;;;;;;5015531;28;20188;-60
2021/04/17 17:12:25;;;;;;;1.07;1.07;;;;;;;;;;5016602;28;20418;-60
2021/04/17 17:14:52;;;;;;;0.37;0.37;;;;;;;;;;5018605;28;20181;-60
2021/04/17 17:17:18;;;;;;;5.10;1.47;;;;;;;;;;5018857;28;20189;-59
2021/04/17 17:19:50;;;;;;;3.90;1.47;;;;;;;;;;5017134;28;20186;-60
2021/04/17 17:22:17;;;;;;;1.40;0.50;;;;;;;;;;5017526;28;20306;-60
2021/04/17 17:24:44;;;;;;;2.47;1.13;;;;;;;;;;5016708;28;20238;-60
2021/04/17 17:27:13;;;;;;;2.73;0.30;;;;;;;;;;5015760;28;20185;-60
2021/04/17 17:29:42;;;;;;;1.70;1.10;;;;;;;;;;5016719;28;20192;-60
2021/04/17 17:32:11;;;;;;;0.60;0.60;;;;;;;;;;5016155;28;20207;-60
2021/04/17 17:34:38;;;;;;;0.57;0.57;;;;;;;;;;5016146;28;20235;-60
2021/04/17 17:37:07;;;;;;;4.13;2.63;;;;;;;;;;5016836;28;20188;-60
2021/04/17 17:39:34;;;;;;;1.13;0.93;;;;;;;;;;5017773;28;20196;-60
2021/04/17 17:42:00;;;;;;;8.00;3.13;;;;;;;;;;5016854;28;20189;-60
2021/04/17 17:44:27;;;;;;;1.27;0.80;;;;;;;;;;5014030;28;20188;-60
2021/04/17 17:46:54;;;;;;;0.93;0.83;;;;;;;;;;5013668;28;20184;-60
2021/04/17 17:49:20;;;;;;;8.00;1.90;;;;;;;;;;5016134;28;21756;-60
2021/04/17 17:51:49;;;;;;;0.60;0.60;;;;;;;;;;5017932;28;20188;-62
2021/04/17 17:54:18;;;;;;;17.80;2.03;;;;;;;;;;5017665;28;20189;-62
2021/04/17 17:56:49;;;;;;;1.37;0.70;;;;;;;;;;5016962;28;20217;-61
2021/04/17 17:59:23;;;;;;;3.70;2.30;;;;;;;;;;5015330;28;20270;-61
2021/04/17 18:01:50;;;;;;;5.33;1.30;;;;;;;;;;5011509;28;20615;-61
2021/04/17 18:04:17;;;;;;;0.10;0.10;;;;;;;;;;5011081;28;20188;-61
2021/04/17 18:06:47;;;;;;;0.53;0.53;;;;;;;;;;5014135;28;20324;-62
2021/04/17 18:09:14;;;;;;;1.50;0.47;;;;;;;;;;5010916;28;20190;-61
2021/04/17 18:11:44;;;;;;;1.33;1.13;;;;;;;;;;5014036;28;20682;-60
2021/04/17 18:14:11;;;;;;;9.10;1.90;;;;;;;;;;5011893;28;20208;-61
2021/04/17 18:16:38;;;;;;;3.60;1.30;;;;;;;;;;5008872;28;20280;-61
2021/04/17 18:19:04;;;;;;;1.50;1.00;;;;;;;;;;5010187;28;20258;-60
2021/04/17 18:21:31;;;;;;;7.03;4.93;;;;;;;;;;5014531;28;20181;-61
2021/04/17 18:23:57;;;;;;;1.80;0.43;;;;;;;;;;5019581;28;20182;-61
2021/04/17 18:26:26;;;;;;;57.63;27.63;;;;;;;;;;5016024;28;20306;-61
2021/04/17 18:28:53;;;;;;;39.53;28.80;;;;;;;;;;5015419;28;20393;-61
2021/04/17 18:31:20;;;;;;;3.73;2.20;;;;;;;;;;5015924;28;20282;-61
2021/04/17 18:33:47;;;;;;;8.30;4.50;;;;;;;;;;5015653;28;20218;-61
2021/04/17 18:36:14;;;;;;;2.63;1.57;;;;;;;;;;5012085;28;20202;-61
2021/04/17 18:38:41;;;;;;;9.40;5.23;;;;;;;;;;5014861;28;20187;-61
2021/04/17 18:41:07;;;;;;;0.80;0.37;;;;;;;;;;5021335;28;20206;-61
2021/04/17 18:43:34;;;;;;;5.50;2.40;;;;;;;;;;5019601;28;20608;-61
2021/04/17 18:46:01;;;;;;;2.73;1.80;;;;;;;;;;5003946;28;20645;-61
2021/04/17 18:48:28;;;;;;;2.43;1.80;;;;;;;;;;5022137;28;20892;-61
2021/04/17 18:50:57;;;;;;;3.50;2.57;;;;;;;;;;5021831;28;20288;-61
2021/04/17 18:53:26;;;;;;;1.00;0.97;;;;;;;;;;5021523;28;20279;-61
2021/04/17 18:55:53;;;;;;;1.10;1.03;;;;;;;;;;5020686;28;20181;-61
2021/04/17 18:58:22;;;;;;;2.00;1.67;;;;;;;;;;5021250;28;20236;-61
2021/04/17 19:00:48;;;;;;;0.73;0.63;;;;;;;;;;5021281;28;20181;-61
2021/04/17 19:03:16;;;;;;;0.00;0.00;;;;;;;;;;5018434;28;20224;-61
2021/04/17 19:05:43;;;;;;;2.13;1.93;;;;;;;;;;5013654;28;20188;-61
2021/04/17 19:08:10;;;;;;;0.00;0.00;;;;;;;;;;5023145;28;20849;-61
2021/04/17 19:10:36;;;;;;;1.33;0.70;;;;;;;;;;5019741;28;20225;-61
2021/04/17 19:13:03;;;;;;;0.10;0.10;;;;;;;;;;5017899;28;20262;-60
2021/04/17 19:15:31;;;;;;;10.50;1.30;;;;;;;;;;5020663;28;20179;-61
2021/04/17 19:18:03;;;;;;;0.20;0.20;;;;;;;;;;5015143;28;20172;-60
2021/04/17 19:20:32;;;;;;;2.93;0.80;;;;;;;;;;5017118;28;20996;-61
2021/04/17 19:22:59;;;;;;;3.33;0.97;;;;;;;;;;5015137;28;20205;-61
2021/04/17 19:25:30;;;;;;;0.13;0.13;;;;;;;;;;5013010;28;20221;-61
2021/04/17 19:27:58;;;;;;;0.00;0.00;;;;;;;;;;5019669;28;20216;-61
2021/04/17 19:30:25;;;;;;;0.93;0.57;;;;;;;;;;5017697;28;20195;-61
2021/04/17 19:32:52;;;;;;;0.17;0.17;;;;;;;;;;5020177;28;20199;-60
2021/04/17 19:35:19;;;;;;;0.40;0.40;;;;;;;;;;5018879;28;20222;-61
2021/04/17 19:37:47;;;;;;;2.13;1.37;;;;;;;;;;5014548;28;20194;-62
2021/04/17 19:40:17;;;;;;;0.67;0.40;;;;;;;;;;5010889;28;20191;-61
2021/04/17 19:42:48;;;;;;;3.17;1.07;;;;;;;;;;5019238;28;20179;-61
2021/04/17 19:45:17;;;;;;;0.83;0.60;;;;;;;;;;5016223;28;20184;-61
2021/04/17 19:47:44;;;;;;;2.23;1.03;;;;;;;;;;5020474;28;20208;-61
2021/04/17 19:50:14;;;;;;;1.03;0.97;;;;;;;;;;5019526;28;20172;-61
2021/04/17 19:52:41;;;;;;;0.63;0.57;;;;;;;;;;5019216;28;20623;-61
2021/04/17 19:55:08;;;;;;;0.40;0.27;;;;;;;;;;5021170;28;20183;-61
2021/04/17 19:57:37;;;;;;;1.63;1.07;;;;;;;;;;5020195;28;20909;-61
2021/04/17 20:00:05;;;;;;;1.27;1.00;;;;;;;;;;5014630;28;20318;-61
2021/04/17 20:02:32;;;;;;;1.57;1.47;;;;;;;;;;5019634;28;20620;-61
2021/04/17 20:04:58;;;;;;;0.97;0.33;;;;;;;;;;5018895;28;20191;-61
2021/04/17 20:07:25;;;;;;;1.47;0.97;;;;;;;;;;5018090;28;20184;-61
2021/04/17 20:09:51;;;;;;;0.00;0.00;;;;;;;;;;5012685;28;20187;-61
2021/04/17 20:12:18;;;;;;;5.40;1.17;;;;;;;;;;5017008;28;20471;-61
2021/04/17 20:14:44;;;;;;;2.20;0.87;;;;;;;;;;5013278;28;20209;-61
2021/04/17 20:17:11;;;;;;;1.17;1.07;;;;;;;;;;5016435;28;20270;-61
2021/04/17 20:19:39;;;;;;;0.10;0.10;;;;;;;;;;5019899;28;20192;-61
2021/04/17 20:22:06;;;;;;;0.10;0.10;;;;;;;;;;5017057;28;20639;-61
2021/04/17 20:24:35;;;;;;;1.00;0.60;;;;;;;;;;5019490;28;20947;-61
2021/04/17 20:27:01;;;;;;;0.77;0.70;;;;;;;;;;5017570;28;20182;-61
2021/04/17 20:29:28;;;;;;;47.43;2.87;;;;;;;;;;5019691;28;20804;-61
2021/04/17 20:31:54;;;;;;;0.80;0.70;;;;;;;;;;5013409;28;20183;-61
2021/04/17 20:34:21;;;;;;;0.00;0.00;;;;;;;;;;5018086;28;20203;-61
2021/04/17 20:36:48;;;;;;;0.87;0.57;;;;;;;;;;5019417;28;20998;-61
2021/04/17 20:39:16;;;;;;;0.07;0.07;;;;;;;;;;5021984;28;20179;-61
2021/04/17 20:41:42;;;;;;;0.20;0.10;;;;;;;;;;5019484;28;20877;-61
2021/04/17 20:44:09;;;;;;;1.17;0.43;;;;;;;;;;5018363;28;20237;-61
2021/04/17 20:46:36;;;;;;;0.57;0.57;;;;;;;;;;5019007;28;20203;-61
2021/04/17 20:49:03;;;;;;;0.67;0.30;;;;;;;;;;5018879;28;20277;-61
2021/04/17 20:51:30;;;;;;;0.83;0.73;;;;;;;;;;5017655;28;20877;-61
2021/04/17 20:53:57;;;;;;;0.00;0.00;;;;;;;;;;5013166;28;20906;-61
2021/04/17 20:56:24;;;;;;;0.13;0.13;;;;;;;;;;5014306;28;20786;-61
2021/04/17 20:58:51;;;;;;;1.93;0.87;;;;;;;;;;5014955;28;20342;-61
2021/04/17 21:01:18;;;;;;;0.97;0.47;;;;;;;;;;5016347;28;20688;-61
2021/04/17 21:03:44;;;;;;;23.47;4.13;;;;;;;;;;5012697;28;20635;-61
2021/04/17 21:06:11;;;;;;;0.20;0.20;;;;;;;;;;5018148;28;20191;-61
2021/04/17 21:08:40;;;;;;;0.40;0.40;;;;;;;;;;5009635;28;20929;-60
2021/04/17 21:11:06;;;;;;;2.83;0.87;;;;;;;;;;5011270;28;20195;-61
2021/04/17 21:13:33;;;;;;;0.13;0.13;;;;;;;;;;5013650;28;20332;-61
2021/04/17 21:16:00;;;;;;;0.50;0.37;;;;;;;;;;5011628;28;20182;-61
2021/04/17 21:18:26;;;;;;;0.10;0.10;;;;;;;;;;5013857;28;20209;-61
2021/04/17 21:20:53;;;;;;;0.80;0.80;;;;;;;;;;5011430;28;20178;-61
2021/04/17 21:23:20;;;;;;;3.27;2.40;;;;;;;;;;5012033;28;20186;-60
2021/04/17 21:25:46;;;;;;;3.03;0.63;;;;;;;;;;5010083;28;20229;-61
2021/04/17 21:28:13;;;;;;;0.40;0.40;;;;;;;;;;5010309;28;20213;-61
2021/04/17 21:30:40;;;;;;;2.63;2.07;;;;;;;;;;5013099;28;20936;-61
2021/04/17 21:33:06;;;;;;;1.80;0.53;;;;;;;;;;5007934;28;20203;-62
2021/04/17 21:35:33;;;;;;;4.80;4.37;;;;;;;;;;5012181;28;20261;-61
2021/04/17 21:38:00;;;;;;;6.30;5.80;;;;;;;;;;5014826;28;20188;-61
2021/04/17 21:40:27;;;;;;;1.40;1.30;;;;;;;;;;5014532;28;20248;-60
2021/04/17 21:42:54;;;;;;;2.07;1.13;;;;;;;;;;5012683;28;20176;-61
2021/04/17 21:45:21;;;;;;;0.80;0.63;;;;;;;;;;5014314;28;20264;-60
2021/04/17 21:47:48;;;;;;;5.13;0.77;;;;;;;;;;5015924;28;20401;-61
2021/04/17 21:50:15;;;;;;;0.53;0.53;;;;;;;;;;5015402;28;20182;-61
2021/04/17 21:52:42;;;;;;;0.67;0.53;;;;;;;;;;5016298;28;20747;-61
2021/04/17 21:55:09;;;;;;;1.47;1.00;;;;;;;;;;5014201;28;20891;-61
2021/04/17 21:57:36;;;;;;;0.00;0.00;;;;;;;;;;5014009;28;20204;-61
2021/04/17 22:00:10;;;;;;;9.03;0.83;;;;;;;;;;4996194;28;21036;-60
2021/04/17 22:02:36;;;;;;;0.10;0.10;;;;;;;;;;5012084;28;21877;-60
2021/04/17 22:05:03;;;;;;;1.67;1.50;;;;;;;;;;5013456;28;20268;-61
2021/04/17 22:07:30;;;;;;;0.00;0.00;;;;;;;;;;5011825;28;20184;-60
2021/04/17 22:09:56;;;;;;;4.33;2.50;;;;;;;;;;5016018;28;20184;-61
2021/04/17 22:12:25;;;;;;;0.00;0.00;;;;;;;;;;5014222;28;20180;-62
2021/04/17 22:14:54;;;;;;;0.00;0.00;;;;;;;;;;5013352;28;20208;-61
2021/04/17 22:17:21;;;;;;;1.70;0.57;;;;;;;;;;5014347;28;20189;-61
2021/04/17 22:19:47;;;;;;;1.20;0.17;;;;;;;;;;5016587;28;20270;-60
2021/04/17 22:22:14;;;;;;;0.20;0.20;;;;;;;;;;5019528;28;20183;-61
2021/04/17 22:24:41;;;;;;;0.37;0.37;;;;;;;;;;5016782;28;20291;-61
2021/04/17 22:27:07;;;;;;;0.10;0.10;;;;;;;;;;5016752;28;20745;-61
2021/04/17 22:29:36;;;;;;;0.67;0.30;;;;;;;;;;5010547;28;20228;-61
2021/04/17 22:32:07;;;;;;;1.50;1.03;;;;;;;;;;5017085;28;20188;-62
2021/04/17 22:34:34;;;;;;;1.03;1.03;;;;;;;;;;5014382;28;20201;-62
2021/04/17 22:37:03;;;;;;;0.10;0.10;;;;;;;;;;5013086;28;20234;-62
2021/04/17 22:39:29;;;;;;;0.10;0.10;;;;;;;;;;5011616;28;20184;-62
2021/04/17 22:41:56;;;;;;;0.00;0.00;;;;;;;;;;5017815;28;20174;-62
2021/04/17 22:44:25;;;;;;;0.00;0.00;;;;;;;;;;5012433;28;20187;-61
2021/04/17 22:46:51;;;;;;;0.00;0.00;;;;;;;;;;5011899;28;20594;-61
2021/04/17 22:49:18;;;;;;;3.50;3.40;;;;;;;;;;5013407;28;20184;-62
2021/04/17 22:51:47;;;;;;;0.07;0.07;;;;;;;;;;5016946;28;20191;-61
2021/04/17 22:54:15;;;;;;;0.00;0.00;;;;;;;;;;5013797;28;20216;-61
2021/04/17 22:56:42;;;;;;;0.00;0.00;;;;;;;;;;5013249;28;20173;-62
2021/04/17 22:59:08;;;;;;;0.23;0.23;;;;;;;;;;5013554;28;20235;-60
2021/04/17 23:01:38;;;;;;;0.00;0.00;;;;;;;;;;5016046;28;20352;-60
2021/04/17 23:04:04;;;;;;;2.77;2.53;;;;;;;;;;5015901;28;20180;-60
2021/04/17 23:06:33;;;;;;;0.00;0.00;;;;;;;;;;5017424;28;20315;-59
2021/04/17 23:09:00;;;;;;;0.10;0.10;;;;;;;;;;5015853;28;20191;-60
2021/04/17 23:11:31;;;;;;;2.50;2.40;;;;;;;;;;5016738;28;20189;-62
2021/04/17 23:14:00;;;;;;;0.00;0.00;;;;;;;;;;5020879;28;20203;-63
2021/04/17 23:16:30;;;;;;;0.10;0.10;;;;;;;;;;5019158;28;20745;-63
2021/04/17 23:18:59;;;;;;;0.00;0.00;;;;;;;;;;5017686;28;20173;-62
2021/04/17 23:21:26;;;;;;;0.60;0.60;;;;;;;;;;5017153;28;20177;-61
2021/04/17 23:23:53;;;;;;;0.00;0.00;;;;;;;;;;5014325;28;20847;-62
2021/04/17 23:26:19;;;;;;;0.20;0.20;;;;;;;;;;5011517;28;20795;-62
2021/04/17 23:28:46;;;;;;;0.10;0.10;;;;;;;;;;5019524;28;20191;-62
2021/04/17 23:31:13;;;;;;;0.00;0.00;;;;;;;;;;5012856;28;20271;-62
2021/04/17 23:33:42;;;;;;;0.00;0.00;;;;;;;;;;5009873;28;20285;-62
2021/04/17 23:36:09;;;;;;;5.83;1.73;;;;;;;;;;5016819;28;20184;-63
2021/04/17 23:38:35;;;;;;;0.10;0.10;;;;;;;;;;5016220;28;20275;-62
2021/04/17 23:41:02;;;;;;;0.00;0.00;;;;;;;;;;5004892;28;20187;-61
2021/04/17 23:43:29;;;;;;;0.20;0.20;;;;;;;;;;5016024;28;20377;-61
2021/04/17 23:45:56;;;;;;;0.83;0.50;;;;;;;;;;5017353;28;20188;-62
2021/04/17 23:48:23;;;;;;;0.43;0.20;;;;;;;;;;5012559;28;20188;-61
2021/04/17 23:50:50;;;;;;;0.33;0.33;;;;;;;;;;5010570;28;20176;-61
2021/04/17 23:53:17;;;;;;;7.90;2.07;;;;;;;;;;5009805;28;20362;-61
2021/04/17 23:55:44;;;;;;;0.00;0.00;;;;;;;;;;5009555;28;20200;-62
2021/04/17 23:58:11;;;;;;;1.33;0.30;;;;;;;;;;5011103;28;20236;-63
